Time;durP1;ratioP1;P1;durP2;ratioP2;P2;SDS_P1;SDS_P2;PMS_P1;PMS_P2;Temp;Humidity;BMP_temperature;BMP_pressure;BME280_temperature;BME280_humidity;BME280_pressure;Samples;Min_cycle;Max_cycle;Signal;HPM_P1;HPM_P2
2021/09/30 00:00:18;;;;;;;8.07;1.80;;;9.90;99.90;;;;;;5085404;28;20163;-47
2021/09/30 00:02:45;;;;;;;10.43;2.40;;;9.90;99.90;;;;;;5088334;28;20066;-47
2021/09/30 00:05:14;;;;;;;6.95;1.90;;;9.90;99.90;;;;;;5087563;28;20052;-47
2021/09/30 00:07:41;;;;;;;14.60;2.42;;;9.80;99.90;;;;;;5088203;28;20202;-48
2021/09/30 00:10:11;;;;;;;10.15;2.33;;;9.70;99.90;;;;;;5086970;28;20066;-46
2021/09/30 00:12:45;;;;;;;11.30;2.40;;;9.70;99.90;;;;;;5087401;28;20155;-47
2021/09/30 00:15:26;;;;;;;10.00;2.45;;;9.60;99.90;;;;;;5087594;28;20060;-47
2021/09/30 01:34:07;;;;;;;11.70;2.45;;;8.70;99.90;;;;;;5041900;28;20107;-46
2021/09/30 02:18:36;;;;;;;7.03;2.15;;;8.90;99.90;;;;;;5099977;28;20049;-44
2021/09/30 02:23:57;;;;;;;10.13;2.40;;;8.90;99.90;;;;;;5105887;28;20056;-45
2021/09/30 02:29:33;;;;;;;6.43;1.52;;;8.90;99.90;;;;;;5090859;28;20102;-46
2021/09/30 02:59:59;;;;;;;5.80;1.70;;;9.10;99.90;;;;;;5105056;28;20504;-46
2021/09/30 03:02:37;;;;;;;10.80;2.05;;;9.10;99.90;;;;;;5068059;28;20114;-46
2021/09/30 03:05:06;;;;;;;7.72;1.85;;;9.10;99.90;;;;;;5079732;28;20060;-48
2021/09/30 03:07:33;;;;;;;10.75;2.55;;;9.10;99.90;;;;;;5087205;28;20127;-46
2021/09/30 03:10:03;;;;;;;9.80;2.30;;;9.10;99.90;;;;;;5104976;28;20050;-47
2021/09/30 03:12:30;;;;;;;9.80;2.72;;;9.10;99.90;;;;;;5089900;28;20447;-47
2021/09/30 03:15:55;;;;;;;7.90;1.95;;;9.10;99.90;;;;;;5071018;28;20059;-46
2021/09/30 03:18:01;;;;;;;9.90;2.75;;;9.10;99.90;;;;;;5077727;28;20160;-48
2021/09/30 03:23:11;;;;;;;12.55;3.13;;;9.00;99.90;;;;;;5089270;28;20083;-48
2021/09/30 03:25:46;;;;;;;7.50;2.20;;;9.00;99.90;;;;;;5089427;28;20055;-47
2021/09/30 03:28:12;;;;;;;9.00;2.67;;;9.00;99.90;;;;;;5087805;28;20052;-46
2021/09/30 03:30:41;;;;;;;8.98;2.88;;;8.90;99.90;;;;;;5087679;28;20036;-47
2021/09/30 03:33:08;;;;;;;8.57;3.05;;;9.00;99.90;;;;;;5087761;28;20496;-46
2021/09/30 03:35:45;;;;;;;8.15;2.45;;;9.00;99.90;;;;;;5086500;28;20124;-47
2021/09/30 03:38:12;;;;;;;7.75;2.42;;;9.00;99.90;;;;;;5070659;28;20499;-46
2021/09/30 03:40:41;;;;;;;8.57;2.60;;;9.00;99.90;;;;;;5093745;28;20060;-45
2021/09/30 03:43:10;;;;;;;11.30;3.03;;;9.00;99.90;;;;;;5088140;28;20060;-48
2021/09/30 03:45:36;;;;;;;8.48;3.38;;;9.00;99.90;;;;;;5087268;28;20478;-49
2021/09/30 03:48:15;;;;;;;12.10;3.78;;;9.00;99.90;;;;;;5087439;28;20465;-48
2021/09/30 03:59:26;;;;;;;10.18;3.50;;;9.10;99.90;;;;;;5011143;28;20564;-46
2021/09/30 04:02:08;;;;;;;12.38;3.28;;;9.00;99.90;;;;;;5031671;28;20088;-46
2021/09/30 04:04:38;;;;;;;11.45;3.78;;;9.00;99.90;;;;;;5011188;28;20049;-46
2021/09/30 04:07:07;;;;;;;10.43;3.30;;;9.00;99.90;;;;;;5006279;28;20421;-47
2021/09/30 04:09:37;;;;;;;11.68;3.88;;;8.90;99.90;;;;;;4989782;28;20077;-46
2021/09/30 04:12:07;;;;;;;10.07;3.53;;;8.90;99.90;;;;;;4989840;28;20062;-47
2021/09/30 04:14:37;;;;;;;13.07;3.60;;;9.00;99.90;;;;;;4989848;28;20379;-46
2021/09/30 04:17:06;;;;;;;17.05;4.28;;;8.90;99.90;;;;;;5029106;28;20092;-46
2021/09/30 04:19:35;;;;;;;9.88;4.45;;;9.00;99.90;;;;;;5008845;28;20057;-47
2021/09/30 04:22:04;;;;;;;16.83;5.88;;;9.00;99.90;;;;;;5031766;28;20201;-46
2021/09/30 04:24:31;;;;;;;15.10;5.88;;;9.00;99.90;;;;;;5030460;28;20069;-47
2021/09/30 04:27:00;;;;;;;16.88;6.88;;;9.00;99.90;;;;;;5009294;28;20060;-47
2021/09/30 04:29:27;;;;;;;14.75;6.20;;;9.10;99.90;;;;;;5010386;28;20161;-46
2021/09/30 04:31:54;;;;;;;15.07;6.20;;;9.00;99.90;;;;;;5078447;28;20683;-47
2021/09/30 04:34:22;;;;;;;16.17;6.03;;;9.00;99.90;;;;;;5087789;28;20052;-46
2021/09/30 04:36:49;;;;;;;16.90;6.15;;;9.00;99.90;;;;;;5086601;28;20113;-47
2021/09/30 04:39:17;;;;;;;14.88;5.65;;;9.00;99.90;;;;;;5087937;28;20051;-47
2021/09/30 04:41:45;;;;;;;19.38;6.10;;;9.00;99.90;;;;;;5086867;28;20466;-46
2021/09/30 04:44:13;;;;;;;18.02;6.72;;;8.90;99.90;;;;;;5083521;28;20428;-48
2021/09/30 04:46:42;;;;;;;18.15;6.05;;;8.90;99.90;;;;;;5083937;28;20091;-48
2021/09/30 04:49:38;;;;;;;14.98;6.63;;;8.90;99.90;;;;;;5024540;28;20496;-46
2021/09/30 04:52:05;;;;;;;15.23;6.78;;;8.90;99.90;;;;;;5008533;28;20156;-46
2021/09/30 04:54:34;;;;;;;21.60;8.95;;;8.90;99.90;;;;;;5008124;28;20111;-46
2021/09/30 04:57:00;;;;;;;22.75;8.82;;;8.90;99.90;;;;;;5024975;28;20056;-46
2021/09/30 04:59:33;;;;;;;25.00;11.52;;;9.00;99.90;;;;;;5029636;28;20049;-46
2021/09/30 05:02:18;;;;;;;24.55;12.10;;;9.00;99.90;;;;;;5035288;28;20050;-47
2021/09/30 05:04:50;;;;;;;18.92;8.88;;;8.90;99.90;;;;;;5007640;28;20143;-45
2021/09/30 05:07:16;;;;;;;18.20;7.65;;;8.90;99.90;;;;;;5008090;28;20418;-47
2021/09/30 05:09:43;;;;;;;15.48;6.07;;;8.90;99.90;;;;;;5009586;28;20545;-45
2021/09/30 05:12:15;;;;;;;13.43;6.43;;;8.80;99.90;;;;;;5008107;28;20053;-48
2021/09/30 05:14:43;;;;;;;14.60;7.50;;;8.80;99.90;;;;;;5024785;28;20116;-47
2021/09/30 05:17:13;;;;;;;19.13;7.78;;;8.80;99.90;;;;;;5024830;28;20472;-47
2021/09/30 05:19:40;;;;;;;20.75;8.85;;;8.80;99.90;;;;;;5007262;28;20093;-46
2021/09/30 05:22:09;;;;;;;18.63;7.25;;;8.80;99.90;;;;;;5011144;28;20115;-49
2021/09/30 05:24:35;;;;;;;17.35;8.35;;;8.70;99.90;;;;;;5025105;28;20160;-45
2021/09/30 05:27:02;;;;;;;17.90;7.32;;;8.70;99.90;;;;;;5077728;28;20063;-46
2021/09/30 05:29:31;;;;;;;18.13;7.57;;;8.70;99.90;;;;;;5097489;28;20143;-45
2021/09/30 05:32:23;;;;;;;17.42;8.45;;;8.70;99.90;;;;;;5091908;28;20051;-45
2021/09/30 05:35:02;;;;;;;16.67;8.80;;;8.70;99.90;;;;;;5099878;28;20454;-47
2021/09/30 05:37:37;;;;;;;14.88;7.38;;;8.70;99.90;;;;;;5089495;28;20060;-51
2021/09/30 05:40:04;;;;;;;17.70;7.00;;;8.60;99.90;;;;;;5075442;28;20112;-47
2021/09/30 05:42:30;;;;;;;16.90;7.32;;;8.60;99.90;;;;;;5091844;28;20456;-47
2021/09/30 05:45:06;;;;;;;15.60;6.43;;;8.50;99.90;;;;;;5090507;28;20052;-48
2021/09/30 05:47:39;;;;;;;11.13;5.88;;;8.50;99.90;;;;;;5089453;28;20086;-46
2021/09/30 05:50:12;;;;;;;54.78;47.17;;;8.50;99.90;;;;;;5086898;28;20110;-50
2021/09/30 05:53:08;;;;;;;65.85;53.97;;;8.60;99.90;;;;;;5085041;28;20055;-44
2021/09/30 05:55:56;;;;;;;15.40;7.85;;;8.70;99.90;;;;;;5090703;28;20052;-59
2021/09/30 05:58:26;;;;;;;16.75;8.88;;;8.80;99.90;;;;;;5086778;28;20056;-45
2021/09/30 06:14:29;;;;;;;15.45;6.93;;;9.10;99.90;;;;;;5080696;28;20139;-52
2021/09/30 06:17:00;;;;;;;16.65;5.07;;;9.20;99.90;;;;;;5099080;28;20067;-49
2021/09/30 06:19:26;;;;;;;15.00;6.15;;;9.20;99.90;;;;;;5088976;28;20036;-49
2021/09/30 06:22:06;;;;;;;17.38;6.03;;;9.30;99.90;;;;;;5089870;28;20055;-50
2021/09/30 06:24:36;;;;;;;16.35;6.60;;;9.30;99.90;;;;;;5089377;28;20063;-50
2021/09/30 06:27:03;;;;;;;16.00;7.97;;;9.30;99.90;;;;;;5103930;28;20047;-49
2021/09/30 06:29:30;;;;;;;22.23;9.50;;;9.40;99.90;;;;;;5089599;28;20063;-49
2021/09/30 06:32:00;;;;;;;18.48;7.25;;;9.50;99.90;;;;;;5085306;28;20063;-54
2021/09/30 06:34:33;;;;;;;25.15;13.00;;;9.50;99.90;;;;;;5090037;28;20193;-51
2021/09/30 06:37:13;;;;;;;59.97;44.20;;;9.60;99.90;;;;;;5073558;28;20055;-52
2021/09/30 06:39:40;;;;;;;37.03;23.80;;;9.60;99.90;;;;;;5088327;28;20147;-54
2021/09/30 06:42:09;;;;;;;24.58;11.57;;;9.60;99.90;;;;;;5088110;28;20051;-49
2021/09/30 06:44:58;;;;;;;15.05;4.40;;;9.80;99.90;;;;;;5089015;28;20569;-50
2021/09/30 06:47:37;;;;;;;16.17;5.05;;;9.70;99.90;;;;;;5089342;28;20051;-54
2021/09/30 06:50:13;;;;;;;15.75;5.90;;;9.70;99.90;;;;;;5090291;28;20044;-50
2021/09/30 06:53:06;;;;;;;14.98;6.78;;;9.70;99.90;;;;;;5090620;28;20048;-54
2021/09/30 06:55:54;;;;;;;13.20;4.47;;;9.90;99.90;;;;;;5086953;28;20044;-55
2021/09/30 06:58:44;;;;;;;16.30;6.07;;;10.20;99.90;;;;;;5088060;28;20098;-56
2021/09/30 07:01:33;;;;;;;15.32;5.95;;;10.40;99.90;;;;;;5027394;28;20053;-56
2021/09/30 07:04:28;;;;;;;19.13;4.80;;;10.80;99.90;;;;;;4958977;28;20054;-54
2021/09/30 07:07:18;;;;;;;16.98;6.65;;;10.90;99.90;;;;;;4891120;29;20687;-53
2021/09/30 07:09:45;;;;;;;16.58;8.13;;;11.30;99.90;;;;;;4892968;29;20053;-56
2021/09/30 07:12:13;;;;;;;28.20;14.40;;;11.50;99.90;;;;;;4889142;29;20158;-53
2021/09/30 07:14:43;;;;;;;14.65;5.43;;;11.60;99.90;;;;;;4892719;29;20631;-55
2021/09/30 07:17:14;;;;;;;23.25;11.93;;;11.90;99.90;;;;;;4890672;29;20584;-50
2021/09/30 07:19:45;;;;;;;14.82;4.90;;;12.20;99.90;;;;;;4887249;29;20058;-53
2021/09/30 07:22:16;;;;;;;11.27;4.15;;;12.40;99.90;;;;;;4889238;29;20414;-49
2021/09/30 07:24:45;;;;;;;15.30;7.82;;;12.40;99.90;;;;;;4887168;29;20196;-51
2021/09/30 07:27:21;;;;;;;10.40;4.07;;;12.40;99.90;;;;;;4886342;29;20155;-54
2021/09/30 07:29:53;;;;;;;12.80;4.70;;;12.70;99.90;;;;;;4889764;29;20049;-55
2021/09/30 07:32:24;;;;;;;14.95;4.80;;;13.20;99.90;;;;;;4888591;29;20132;-51
2021/09/30 07:34:56;;;;;;;44.25;36.03;;;13.30;99.90;;;;;;4890143;29;20052;-50
2021/09/30 07:37:24;;;;;;;20.88;13.05;;;13.20;99.90;;;;;;4890258;29;20052;-49
2021/09/30 07:39:52;;;;;;;13.82;8.18;;;13.30;99.90;;;;;;4914126;28;20070;-53
2021/09/30 07:42:24;;;;;;;14.27;5.65;;;13.60;99.90;;;;;;4996695;28;20517;-54
2021/09/30 07:44:52;;;;;;;14.20;6.88;;;13.80;99.90;;;;;;5059261;28;20048;-51
2021/09/30 07:47:21;;;;;;;13.65;4.65;;;14.10;99.90;;;;;;5085160;28;20056;-52
2021/09/30 07:49:52;;;;;;;25.02;16.15;;;14.50;99.90;;;;;;5087708;28;20132;-53
2021/09/30 07:52:24;;;;;;;19.52;10.52;;;14.70;99.90;;;;;;5054572;28;20052;-54
2021/09/30 07:54:51;;;;;;;11.73;5.18;;;15.20;99.90;;;;;;5086614;28;20139;-55
2021/09/30 07:57:24;;;;;;;12.85;6.70;;;15.30;99.90;;;;;;5086607;28;20126;-51
2021/09/30 07:59:53;;;;;;;11.63;4.83;;;15.40;99.90;;;;;;5085269;28;20090;-52
2021/09/30 08:02:22;;;;;;;16.05;6.07;;;15.60;99.90;;;;;;5087117;28;20127;-53
2021/09/30 08:04:51;;;;;;;15.20;6.00;;;15.70;99.90;;;;;;5083648;28;20823;-54
2021/09/30 08:07:21;;;;;;;16.85;6.15;;;16.10;99.90;;;;;;5084200;28;20087;-52
2021/09/30 08:09:47;;;;;;;17.27;7.85;;;16.10;99.90;;;;;;5085550;28;20052;-52
2021/09/30 08:12:19;;;;;;;17.20;7.85;;;16.30;99.90;;;;;;5086955;28;20059;-54
2021/09/30 08:14:49;;;;;;;18.38;8.15;;;16.40;99.90;;;;;;5085987;28;20052;-51
2021/09/30 08:17:17;;;;;;;18.23;10.77;;;16.40;99.90;;;;;;5087229;28;20052;-52
2021/09/30 08:19:45;;;;;;;16.23;7.75;;;16.50;99.90;;;;;;5086062;28;20488;-49
2021/09/30 08:22:12;;;;;;;16.80;7.72;;;16.30;99.90;;;;;;5087587;28;20055;-53
2021/09/30 08:24:40;;;;;;;21.60;14.35;;;16.50;99.90;;;;;;5085878;28;20063;-53
2021/09/30 08:27:10;;;;;;;22.13;14.32;;;16.60;99.90;;;;;;5087404;28;20087;-53
2021/09/30 08:29:42;;;;;;;19.08;11.07;;;17.00;99.90;;;;;;5087133;28;20582;-55
2021/09/30 08:32:08;;;;;;;12.90;5.95;;;17.10;99.90;;;;;;5084201;28;20139;-56
2021/09/30 08:34:34;;;;;;;15.80;5.70;;;17.30;99.90;;;;;;5087363;28;20060;-55
2021/09/30 08:37:03;;;;;;;14.90;7.25;;;17.50;99.90;;;;;;5087681;28;20066;-54
2021/09/30 08:39:29;;;;;;;12.07;6.68;;;17.40;99.90;;;;;;5087312;28;20052;-55
2021/09/30 08:41:56;;;;;;;11.20;5.00;;;17.40;99.90;;;;;;5086642;28;20079;-55
2021/09/30 08:44:27;;;;;;;12.13;6.50;;;17.60;99.90;;;;;;5087295;28;20051;-53
2021/09/30 08:46:54;;;;;;;9.80;3.95;;;17.60;99.90;;;;;;5089828;28;20050;-52
2021/09/30 08:49:29;;;;;;;10.63;4.47;;;17.90;99.90;;;;;;5096783;28;20125;-53
2021/09/30 08:51:55;;;;;;;13.85;6.05;;;17.50;99.90;;;;;;5087825;28;20059;-53
2021/09/30 08:54:22;;;;;;;13.95;7.60;;;18.00;99.90;;;;;;5087489;28;20066;-52
2021/09/30 08:56:49;;;;;;;11.32;4.47;;;18.20;99.90;;;;;;5086565;28;20139;-52
2021/09/30 08:59:16;;;;;;;12.43;4.40;;;18.40;99.90;;;;;;5085153;28;20071;-52
2021/09/30 09:02:05;;;;;;;12.82;5.13;;;18.10;99.90;;;;;;5085695;28;20778;-51
2021/09/30 09:04:32;;;;;;;14.18;6.00;;;18.20;99.70;;;;;;5086830;28;20044;-50
2021/09/30 09:07:06;;;;;;;12.80;5.28;;;18.60;99.90;;;;;;5087286;28;20048;-48
2021/09/30 09:09:36;;;;;;;10.73;5.05;;;18.40;97.30;;;;;;5091813;28;20055;-49
2021/09/30 09:12:09;;;;;;;11.55;3.85;;;18.50;97.50;;;;;;5091414;28;20113;-48
2021/09/30 09:14:40;;;;;;;11.77;3.30;;;18.60;95.70;;;;;;5088696;28;20186;-48
2021/09/30 09:17:12;;;;;;;9.37;3.33;;;19.00;95.20;;;;;;5089996;28;20052;-48
2021/09/30 09:19:41;;;;;;;8.48;3.10;;;18.80;93.40;;;;;;5089101;28;20082;-50
2021/09/30 09:22:30;;;;;;;9.13;3.90;;;19.20;99.90;;;;;;5087887;28;20060;-47
2021/09/30 09:25:10;;;;;;;12.57;4.38;;;18.90;88.50;;;;;;5089896;28;20104;-48
2021/09/30 09:27:45;;;;;;;14.25;8.13;;;19.20;85.50;;;;;;5090309;28;20048;-48
2021/09/30 09:30:35;;;;;;;13.70;5.20;;;19.20;86.20;;;;;;5091157;28;20052;-49
2021/09/30 09:33:09;;;;;;;11.40;3.67;;;19.40;83.50;;;;;;5091389;28;20052;-50
2021/09/30 09:35:53;;;;;;;13.10;5.85;;;19.80;82.60;;;;;;5092436;28;20059;-51
2021/09/30 09:38:22;;;;;;;13.50;5.07;;;19.40;77.00;;;;;;5089978;28;20047;-47
2021/09/30 09:40:58;;;;;;;12.02;5.13;;;18.70;88.00;;;;;;5092726;28;20548;-50
2021/09/30 09:43:45;;;;;;;13.23;4.38;;;18.50;92.10;;;;;;5089773;28;20043;-47
2021/09/30 09:46:13;;;;;;;12.68;5.75;;;18.00;93.30;;;;;;5090760;28;20059;-46
2021/09/30 09:48:55;;;;;;;11.98;5.72;;;17.60;97.70;;;;;;5088223;28;20485;-49
2021/09/30 09:51:25;;;;;;;15.77;5.38;;;17.80;97.80;;;;;;5087293;28;20401;-48
2021/09/30 09:53:57;;;;;;;13.73;4.63;;;18.40;95.90;;;;;;5095041;28;20052;-47
2021/09/30 09:56:32;;;;;;;12.05;4.80;;;18.80;90.60;;;;;;5089663;28;20044;-49
2021/09/30 09:58:58;;;;;;;12.68;4.13;;;19.00;86.50;;;;;;5087171;28;20075;-50
2021/09/30 10:01:39;;;;;;;14.10;4.28;;;19.20;85.00;;;;;;5085040;28;20110;-52
2021/09/30 10:04:06;;;;;;;14.35;6.70;;;19.90;85.20;;;;;;5088448;28;20044;-48
2021/09/30 10:06:34;;;;;;;11.57;5.28;;;20.30;77.70;;;;;;5069167;28;20105;-49
2021/09/30 10:09:07;;;;;;;9.45;4.47;;;20.60;74.50;;;;;;5086242;28;20147;-51
2021/09/30 10:11:37;;;;;;;12.57;5.38;;;20.60;70.90;;;;;;5089164;28;20059;-46
2021/09/30 10:14:07;;;;;;;12.85;4.40;;;21.20;68.20;;;;;;5084732;28;20139;-48
2021/09/30 10:16:37;;;;;;;8.48;3.53;;;20.90;66.70;;;;;;5087925;28;20051;-47
2021/09/30 10:19:10;;;;;;;8.95;2.83;;;20.60;64.70;;;;;;5086332;28;20129;-47
2021/09/30 10:21:38;;;;;;;7.95;2.80;;;20.60;66.00;;;;;;5088489;28;20530;-48
2021/09/30 10:24:16;;;;;;;9.70;3.00;;;20.50;63.10;;;;;;5086559;28;20455;-46
2021/09/30 10:26:58;;;;;;;6.68;2.28;;;20.80;61.90;;;;;;5088561;28;20056;-49
2021/09/30 10:29:34;;;;;;;8.90;2.58;;;20.70;59.70;;;;;;5052977;28;20101;-51
2021/09/30 10:32:10;;;;;;;9.05;2.30;;;20.30;61.70;;;;;;5081111;28;20071;-49
2021/09/30 10:34:42;;;;;;;11.75;5.18;;;20.10;64.70;;;;;;5085250;28;20056;-48
2021/09/30 10:37:31;;;;;;;7.60;3.10;;;20.80;67.10;;;;;;5082684;28;20584;-47
2021/09/30 10:40:23;;;;;;;8.52;3.05;;;20.70;60.10;;;;;;5086843;28;20056;-46
2021/09/30 10:42:57;;;;;;;8.45;3.92;;;20.10;59.70;;;;;;5040487;28;20517;-46
2021/09/30 10:45:37;;;;;;;14.68;7.18;;;20.40;62.10;;;;;;5044453;28;20114;-46
2021/09/30 10:48:30;;;;;;;11.63;4.50;;;20.10;61.20;;;;;;5045837;28;20067;-49
2021/09/30 10:51:06;;;;;;;15.00;6.93;;;20.00;62.10;;;;;;5042853;28;20060;-46
2021/09/30 10:53:47;;;;;;;9.05;3.05;;;19.50;65.20;;;;;;5026201;28;20053;-47
2021/09/30 10:56:31;;;;;;;8.55;4.45;;;19.30;63.70;;;;;;5046187;28;20576;-48
2021/09/30 10:59:20;;;;;;;12.60;3.00;;;19.00;64.50;;;;;;5043112;28;20464;-47
2021/09/30 11:01:46;;;;;;;8.05;2.75;;;19.20;67.20;;;;;;5038992;28;20524;-46
2021/09/30 11:04:19;;;;;;;8.80;2.00;;;19.00;68.40;;;;;;5043896;28;20807;-48
2021/09/30 11:07:07;;;;;;;8.45;2.38;;;19.10;67.90;;;;;;5041689;28;20053;-48
2021/09/30 11:09:36;;;;;;;6.38;1.70;;;19.20;69.80;;;;;;5043420;28;20081;-50
2021/09/30 11:12:10;;;;;;;8.02;1.70;;;18.50;69.70;;;;;;5007155;28;20558;-50
2021/09/30 11:14:57;;;;;;;10.30;3.63;;;18.30;72.30;;;;;;5027342;28;20041;-47
2021/09/30 11:17:34;;;;;;;6.07;1.90;;;18.10;70.20;;;;;;5008428;28;20049;-47
2021/09/30 11:20:35;;;;;;;9.20;2.97;;;18.00;74.40;;;;;;5056728;28;20052;-47
2021/09/30 11:23:05;;;;;;;18.55;11.40;;;17.90;76.30;;;;;;5020626;28;20134;-47
2021/09/30 11:26:06;;;;;;;18.98;10.73;;;18.10;77.50;;;;;;5021289;28;20607;-45
2021/09/30 11:28:37;;;;;;;6.65;1.75;;;18.10;76.20;;;;;;5024285;28;20924;-48
2021/09/30 11:31:27;;;;;;;7.90;2.30;;;17.90;79.70;;;;;;5023418;28;20126;-46
2021/09/30 11:34:02;;;;;;;8.27;2.58;;;18.20;76.80;;;;;;5023904;28;20065;-47
2021/09/30 11:36:38;;;;;;;8.75;3.65;;;18.40;75.10;;;;;;5025438;28;20152;-48
2021/09/30 11:39:13;;;;;;;7.25;2.45;;;19.00;72.40;;;;;;4997910;28;20461;-47
2021/09/30 11:41:42;;;;;;;9.60;2.15;;;19.00;72.70;;;;;;5022655;28;20049;-45
2021/09/30 11:44:17;;;;;;;6.15;2.22;;;19.50;71.00;;;;;;5020403;28;20053;-48
2021/09/30 11:46:43;;;;;;;5.97;1.50;;;19.60;67.80;;;;;;5021177;28;20597;-45
2021/09/30 11:49:17;;;;;;;6.93;1.63;;;19.60;66.50;;;;;;5023367;28;20045;-48
2021/09/30 11:51:51;;;;;;;8.88;1.77;;;19.50;62.90;;;;;;5008001;28;20100;-44
2021/09/30 11:54:19;;;;;;;8.38;2.13;;;19.90;64.60;;;;;;5021873;28;20121;-48
2021/09/30 11:56:58;;;;;;;8.07;1.90;;;20.40;65.50;;;;;;5001556;28;20058;-44
2021/09/30 11:59:28;;;;;;;6.20;1.65;;;20.80;64.80;;;;;;5047346;28;20060;-46
2021/09/30 12:02:02;;;;;;;5.40;1.70;;;19.30;62.00;;;;;;5082125;28;20044;-46
2021/09/30 12:04:36;;;;;;;8.43;1.50;;;18.70;66.40;;;;;;5083395;28;20052;-47
2021/09/30 12:07:15;;;;;;;5.82;1.52;;;18.80;69.10;;;;;;5085122;28;20420;-46
2021/09/30 12:09:45;;;;;;;6.60;1.70;;;19.00;68.20;;;;;;5086031;28;20043;-47
2021/09/30 12:12:17;;;;;;;6.95;1.27;;;19.00;65.70;;;;;;5084598;28;20081;-46
2021/09/30 12:14:48;;;;;;;7.00;1.42;;;18.70;64.40;;;;;;5085975;28;20059;-46
2021/09/30 12:17:21;;;;;;;5.57;1.35;;;18.40;65.50;;;;;;5100961;28;20040;-48
2021/09/30 12:19:54;;;;;;;6.82;1.20;;;18.50;64.40;;;;;;5085660;28;20060;-44
2021/09/30 12:22:33;;;;;;;9.52;1.50;;;18.70;64.40;;;;;;5086320;28;20056;-48
2021/09/30 12:25:08;;;;;;;6.32;1.20;;;19.20;62.60;;;;;;5085507;28;20106;-48
2021/09/30 12:27:37;;;;;;;6.32;1.27;;;19.90;63.00;;;;;;5084545;28;20063;-46
2021/09/30 12:30:17;;;;;;;9.10;1.70;;;20.10;60.00;;;;;;5087559;28;20101;-44
2021/09/30 12:32:46;;;;;;;5.50;1.30;;;19.80;60.20;;;;;;5085633;28;20075;-47
2021/09/30 12:35:26;;;;;;;8.45;1.77;;;19.40;60.90;;;;;;5084700;28;20689;-43
2021/09/30 12:38:02;;;;;;;6.30;1.58;;;18.80;63.10;;;;;;5087064;28;20048;-44
2021/09/30 12:40:34;;;;;;;9.15;1.20;;;18.20;66.30;;;;;;5086381;28;20464;-47
2021/09/30 12:43:06;;;;;;;5.32;1.20;;;17.40;69.40;;;;;;5086305;28;20051;-45
2021/09/30 12:45:42;;;;;;;15.45;7.97;;;17.00;76.80;;;;;;5087011;28;20506;-45
2021/09/30 12:48:12;;;;;;;17.75;11.18;;;16.50;80.40;;;;;;5084614;28;20416;-44
2021/09/30 12:50:58;;;;;;;17.35;10.63;;;16.50;83.80;;;;;;5085653;28;20059;-48
2021/09/30 12:53:43;;;;;;;12.45;4.38;;;16.40;87.70;;;;;;5067434;28;20131;-45
2021/09/30 12:56:18;;;;;;;9.90;1.85;;;16.40;88.20;;;;;;5100796;28;20110;-43
2021/09/30 12:58:52;;;;;;;7.30;1.50;;;16.10;91.40;;;;;;5085112;28;20103;-43
2021/09/30 13:01:30;;;;;;;16.83;11.65;;;16.20;92.50;;;;;;5085216;28;20052;-45
2021/09/30 13:04:04;;;;;;;20.52;12.73;;;16.20;94.40;;;;;;5088268;28;20052;-45
2021/09/30 13:06:31;;;;;;;11.27;2.55;;;16.20;93.90;;;;;;5087058;28;20048;-46
2021/09/30 13:08:58;;;;;;;9.95;4.25;;;16.10;92.90;;;;;;5087213;28;20130;-47
2021/09/30 13:11:31;;;;;;;11.10;4.78;;;16.10;93.60;;;;;;5085871;28;20127;-45
2021/09/30 13:14:21;;;;;;;8.68;1.88;;;15.90;96.50;;;;;;5085695;28;20078;-47
2021/09/30 13:17:16;;;;;;;9.05;3.00;;;16.10;98.10;;;;;;5086355;28;21294;-45
2021/09/30 13:19:49;;;;;;;8.68;2.30;;;16.30;99.00;;;;;;5086092;28;20051;-44
2021/09/30 13:22:38;;;;;;;9.20;3.63;;;16.10;97.80;;;;;;5081762;28;20974;-46
2021/09/30 13:25:10;;;;;;;13.20;8.50;;;16.10;99.90;;;;;;5083071;28;20122;-46
2021/09/30 13:27:42;;;;;;;16.92;9.57;;;16.10;99.90;;;;;;5088042;28;20466;-44
2021/09/30 13:30:17;;;;;;;7.55;2.35;;;16.10;99.90;;;;;;5086728;28;20060;-44
2021/09/30 13:32:47;;;;;;;9.50;2.45;;;15.90;99.90;;;;;;5082667;28;20742;-46
2021/09/30 13:35:17;;;;;;;7.95;2.72;;;15.80;99.90;;;;;;5086003;28;20092;-45
2021/09/30 13:37:43;;;;;;;5.80;1.77;;;15.70;99.90;;;;;;5078640;28;20151;-45
2021/09/30 13:40:12;;;;;;;7.65;2.67;;;15.80;99.90;;;;;;5085900;28;20099;-47
2021/09/30 13:42:42;;;;;;;7.90;2.08;;;15.70;99.90;;;;;;5087291;28;20076;-47
2021/09/30 13:45:14;;;;;;;7.00;1.67;;;15.70;99.90;;;;;;5086621;28;20083;-46
2021/09/30 13:47:47;;;;;;;7.50;1.40;;;15.50;99.90;;;;;;5085481;28;20083;-47
2021/09/30 13:50:22;;;;;;;8.40;1.45;;;15.50;99.50;;;;;;5084357;28;20105;-46
2021/09/30 13:52:50;;;;;;;7.07;1.35;;;15.40;99.90;;;;;;5084330;28;20048;-45
2021/09/30 13:55:22;;;;;;;8.77;1.30;;;15.10;96.50;;;;;;5087707;28;20055;-48
2021/09/30 13:57:48;;;;;;;5.40;1.65;;;15.10;98.30;;;;;;5089450;28;20130;-44
2021/09/30 14:00:16;;;;;;;9.32;1.33;;;15.10;99.00;;;;;;5089822;28;20051;-46
2021/09/30 14:02:46;;;;;;;5.35;1.38;;;15.10;99.90;;;;;;5089525;28;20500;-50
2021/09/30 14:05:14;;;;;;;7.18;1.30;;;15.20;99.90;;;;;;5090840;28;20101;-44
2021/09/30 14:07:43;;;;;;;10.38;2.20;;;15.20;99.90;;;;;;5089870;28;20052;-44
2021/09/30 14:10:14;;;;;;;54.97;44.45;;;15.20;99.90;;;;;;5090184;28;20052;-46
2021/09/30 14:12:40;;;;;;;8.30;1.98;;;15.20;99.90;;;;;;5085831;28;20524;-44
2021/09/30 14:15:07;;;;;;;10.60;3.83;;;15.10;99.90;;;;;;5091542;28;20067;-47
2021/09/30 14:17:34;;;;;;;7.38;1.90;;;15.10;99.90;;;;;;5088760;28;20082;-44
2021/09/30 14:20:03;;;;;;;9.20;1.88;;;15.00;99.90;;;;;;5086976;28;20044;-48
2021/09/30 14:22:30;;;;;;;7.25;3.38;;;15.00;99.90;;;;;;5089327;28;20060;-48
2021/09/30 14:24:59;;;;;;;9.65;3.50;;;15.10;99.90;;;;;;5090540;28;20052;-47
2021/09/30 14:27:28;;;;;;;6.30;2.08;;;15.00;99.90;;;;;;5087997;28;20131;-44
2021/09/30 14:30:00;;;;;;;12.43;2.72;;;15.00;99.90;;;;;;5085845;28;20055;-49
2021/09/30 14:32:29;;;;;;;8.00;3.00;;;15.00;99.90;;;;;;5087459;28;20056;-45
2021/09/30 14:34:55;;;;;;;7.30;2.28;;;15.10;99.90;;;;;;5090381;28;20116;-47
2021/09/30 14:37:26;;;;;;;7.07;1.65;;;15.10;99.90;;;;;;5087958;28;20571;-46
2021/09/30 14:39:54;;;;;;;8.10;2.03;;;15.10;99.90;;;;;;5086809;28;20408;-48
2021/09/30 14:42:26;;;;;;;7.35;2.45;;;15.10;99.90;;;;;;5089568;28;20059;-45
2021/09/30 14:44:53;;;;;;;7.22;2.20;;;15.20;99.90;;;;;;5085996;28;20058;-47
2021/09/30 14:47:21;;;;;;;5.78;2.22;;;15.20;99.90;;;;;;5090358;28;20044;-44
2021/09/30 14:49:47;;;;;;;9.05;2.33;;;15.10;99.90;;;;;;5091136;28;20052;-47
2021/09/30 14:52:14;;;;;;;4.60;1.80;;;14.90;99.90;;;;;;5087379;28;20519;-44
2021/09/30 14:54:43;;;;;;;6.65;2.10;;;14.80;99.90;;;;;;5090067;28;20144;-45
2021/09/30 14:57:12;;;;;;;9.88;4.63;;;14.80;99.90;;;;;;5088609;28;20051;-48
2021/09/30 14:59:41;;;;;;;21.58;12.73;;;14.60;99.90;;;;;;5080332;28;20118;-49
2021/09/30 15:02:10;;;;;;;15.80;9.88;;;14.80;99.90;;;;;;5083232;28;20052;-45
2021/09/30 15:04:37;;;;;;;11.70;5.78;;;14.90;99.90;;;;;;5084527;28;20628;-46
2021/09/30 15:07:04;;;;;;;10.80;3.38;;;15.00;99.90;;;;;;5088248;28;20079;-46
2021/09/30 15:09:33;;;;;;;7.05;3.47;;;15.00;99.90;;;;;;5084391;28;20044;-44
2021/09/30 15:12:03;;;;;;;9.88;2.90;;;14.90;99.90;;;;;;5083483;28;20061;-46
2021/09/30 15:14:32;;;;;;;5.15;1.73;;;14.90;99.90;;;;;;5088569;28;20392;-46
2021/09/30 15:17:09;;;;;;;9.55;2.72;;;14.70;99.90;;;;;;5089493;28;20063;-43
2021/09/30 15:19:47;;;;;;;6.32;2.33;;;14.60;99.90;;;;;;5088584;28;20055;-48
2021/09/30 15:22:13;;;;;;;5.78;2.03;;;14.50;99.90;;;;;;5088291;28;20066;-48
2021/09/30 15:24:40;;;;;;;9.50;1.60;;;14.40;99.90;;;;;;5087386;28;20047;-47
2021/09/30 15:27:06;;;;;;;5.88;1.60;;;14.20;99.90;;;;;;5087722;28;20139;-44
2021/09/30 15:29:35;;;;;;;9.40;2.00;;;14.20;99.90;;;;;;5089429;28;20090;-47
2021/09/30 15:32:02;;;;;;;6.40;1.80;;;14.20;99.90;;;;;;5089616;28;20059;-47
2021/09/30 15:34:31;;;;;;;6.68;1.90;;;14.10;99.90;;;;;;5070855;28;20507;-48
2021/09/30 15:36:58;;;;;;;6.03;2.00;;;14.10;99.90;;;;;;5089346;28;21349;-47
2021/09/30 15:39:24;;;;;;;7.03;1.77;;;14.10;99.90;;;;;;5088204;28;20052;-50
2021/09/30 15:41:53;;;;;;;7.50;1.85;;;13.90;99.90;;;;;;5087544;28;20055;-48
2021/09/30 15:44:19;;;;;;;6.40;1.90;;;13.80;99.90;;;;;;5086581;28;20061;-47
2021/09/30 15:46:49;;;;;;;7.88;1.20;;;13.80;99.90;;;;;;5087670;28;20051;-48
2021/09/30 15:49:16;;;;;;;7.50;1.70;;;13.90;99.90;;;;;;5086976;28;20444;-46
2021/09/30 15:51:44;;;;;;;6.38;1.35;;;13.80;99.90;;;;;;5087440;28;20059;-47
2021/09/30 15:54:13;;;;;;;7.43;1.83;;;13.80;99.90;;;;;;5088131;28;20421;-44
2021/09/30 15:56:42;;;;;;;4.00;1.40;;;13.80;99.90;;;;;;5089318;28;20416;-48
2021/09/30 15:59:08;;;;;;;8.13;1.73;;;13.80;99.90;;;;;;5088049;28;20052;-44
2021/09/30 16:01:35;;;;;;;7.50;2.20;;;13.80;99.90;;;;;;5085502;28;20671;-51
2021/09/30 16:04:04;;;;;;;13.15;7.70;;;13.80;99.90;;;;;;5087438;28;20040;-48
2021/09/30 16:06:41;;;;;;;6.57;1.83;;;13.90;99.90;;;;;;5088911;28;20052;-47